createdAt,value
2023-03-27T00:03:44.513Z,100024.46
2023-03-27T00:09:11.737Z,100033.36
2023-03-27T00:14:37.673Z,100046.21
2023-03-27T00:20:03.371Z,100062.98
2023-03-27T00:25:31.381Z,100071.77
2023-03-27T00:30:57.792Z,100078.09
2023-03-27T00:36:24.040Z,100081.27
2023-03-27T00:41:49.703Z,100085.98
2023-03-27T00:47:17.461Z,100086.60
2023-03-27T00:52:43.831Z,100093.70
2023-03-27T00:58:15.129Z,100103.27
2023-03-27T01:03:42.861Z,100106.77
2023-03-27T01:09:09.091Z,100121.44
2023-03-27T01:14:47.441Z,100130.08
2023-03-27T01:20:28.265Z,100138.16
2023-03-27T01:26:11.423Z,100140.23
2023-03-27T01:31:53.703Z,100146.02
2023-03-27T01:37:48.498Z,100153.23
2023-03-27T01:43:21.766Z,100161.30
2023-03-27T01:48:46.209Z,100168.40
2023-03-27T01:54:16.253Z,100168.12
2023-03-27T01:59:45.662Z,100184.26
2023-03-27T02:05:16.570Z,100186.56
2023-03-27T02:10:47.999Z,100188.98
2023-03-27T02:16:15.083Z,100197.52
2023-03-27T02:21:41.255Z,100209.26
2023-03-27T02:27:10.680Z,100213.92
2023-03-27T02:32:54.668Z,100221.89
2023-03-27T02:38:29.598Z,100229.79
2023-03-27T02:44:03.163Z,100242.19
2023-03-27T02:49:35.958Z,100259.94
2023-03-27T02:55:08.949Z,100266.46
2023-03-27T03:00:45.906Z,100273.68
2023-03-27T03:06:11.767Z,100283.91
2023-03-27T03:11:40.599Z,100292.58
2023-03-27T03:17:06.817Z,100299.06
2023-03-27T03:22:32.807Z,100312.32
2023-03-27T03:28:04.290Z,100317.50
2023-03-27T03:33:14.295Z,100333.02
2023-03-27T03:38:43.059Z,100335.80
2023-03-27T03:44:08.841Z,100344.21
2023-03-27T03:49:34.521Z,100352.73
2023-03-27T03:55:00.480Z,100361.45
2023-03-27T04:00:34.606Z,100368.75
2023-03-27T04:06:00.542Z,100374.85
2023-03-27T04:11:20.712Z,100378.52
2023-03-27T04:16:46.574Z,100382.46
2023-03-27T04:22:12.406Z,100392.86
2023-03-27T04:27:38.708Z,100400.84
2023-03-27T04:33:06.493Z,100406.75
2023-03-27T04:38:31.261Z,100412.05
2023-03-27T04:43:56.977Z,100420.15
2023-03-27T04:49:22.997Z,100421.39
2023-03-27T04:54:48.781Z,100419.92
2023-03-27T05:00:14.420Z,100427.80
2023-03-27T05:05:40.403Z,100437.33
2023-03-27T05:11:07.240Z,100449.90
2023-03-27T05:16:33.476Z,100455.20
2023-03-27T05:21:59.397Z,100461.81
2023-03-27T05:27:25.408Z,100474.08
2023-03-27T05:32:51.191Z,100481.38
2023-03-27T05:38:18.080Z,100482.50
2023-03-27T05:43:45.218Z,100491.51
2023-03-27T05:49:11.093Z,100502.61
2023-03-27T05:54:36.751Z,100515.53
2023-03-27T05:59:55.194Z,100523.03
2023-03-27T06:05:20.928Z,100533.48
2023-03-27T06:10:49.160Z,100542.33
2023-03-27T06:16:16.061Z,100548.90
2023-03-27T06:21:32.166Z,100555.41
2023-03-27T06:26:57.793Z,100566.34
2023-03-27T06:32:24.614Z,100580.06
2023-03-27T06:37:56.318Z,100582.21
2023-03-27T06:43:23.378Z,100584.12
2023-03-27T06:48:49.116Z,100592.58
2023-03-27T06:54:14.969Z,100601.73
2023-03-27T06:59:40.873Z,100610.52
2023-03-27T07:05:07.055Z,100610.88
2023-03-27T07:10:33.624Z,100617.39
2023-03-27T07:15:59.405Z,100621.43
2023-03-27T07:21:25.467Z,100618.14
2023-03-27T07:26:51.125Z,100631.67
2023-03-27T07:32:29.694Z,100637.41
2023-03-27T07:37:54.016Z,100639.29
2023-03-27T07:43:19.756Z,100641.30
2023-03-27T07:48:35.465Z,100652.36
2023-03-27T07:54:01.351Z,100654.70
2023-03-27T07:59:28.046Z,100651.72
2023-03-27T08:04:53.914Z,100648.13
2023-03-27T08:10:20.074Z,100651.45
2023-03-27T08:15:39.123Z,100651.33
2023-03-27T08:21:04.784Z,100651.73
2023-03-27T08:26:30.735Z,100645.89
2023-03-27T08:31:56.442Z,100655.54
2023-03-27T08:37:22.157Z,100664.36
2023-03-27T08:42:57.140Z,100672.64
2023-03-27T08:48:30.388Z,100682.86
2023-03-27T08:54:05.383Z,100680.24
2023-03-27T08:59:35.877Z,100690.09
2023-03-27T09:05:08.220Z,100688.89
2023-03-27T09:10:36.181Z,100699.65
2023-03-27T09:16:00.025Z,100703.20
2023-03-27T09:21:24.447Z,100705.48
2023-03-27T09:27:06.353Z,100711.36
2023-03-27T09:32:35.748Z,100717.63
2023-03-27T09:37:54.647Z,100722.52
2023-03-27T09:43:26.932Z,100719.54
2023-03-27T09:48:50.361Z,100722.10
2023-03-27T09:54:19.972Z,100729.23
2023-03-27T09:59:44.146Z,100735.42
2023-03-27T10:05:14.450Z,100733.33
2023-03-27T10:10:41.569Z,100736.30
2023-03-27T10:16:07.283Z,100736.36
2023-03-27T10:21:39.808Z,100743.67
2023-03-27T10:26:48.390Z,100741.88
2023-03-27T10:32:16.220Z,100740.46
2023-03-27T10:37:39.236Z,100744.38
2023-03-27T10:43:07.192Z,100758.90
2023-03-27T10:48:48.119Z,100763.94
2023-03-27T10:54:17.619Z,100761.50
2023-03-27T10:59:49.547Z,100767.20
2023-03-27T11:05:19.839Z,100766.05
2023-03-27T11:10:50.884Z,100766.89
2023-03-27T11:16:25.986Z,100768.52
2023-03-27T11:22:02.364Z,100770.63
2023-03-27T11:27:35.346Z,100772.36
2023-03-27T11:33:10.184Z,100772.77
2023-03-27T11:38:41.237Z,100771.00
2023-03-27T11:43:59.896Z,100778.33
2023-03-27T11:49:32.697Z,100781.31
2023-03-27T11:55:11.856Z,100786.79
2023-03-27T12:00:47.990Z,100787.86
2023-03-27T12:06:20.447Z,100784.77
2023-03-27T12:11:42.374Z,100782.71
2023-03-27T12:17:20.169Z,100783.08
2023-03-27T12:22:57.176Z,100779.61
2023-03-27T12:28:32.704Z,100781.26
2023-03-27T12:34:09.076Z,100779.10
2023-03-27T12:39:40.060Z,100791.59
2023-03-27T12:45:38.703Z,100791.01
2023-03-27T12:51:20.459Z,100790.08
2023-03-27T12:56:58.071Z,100804.63
2023-03-27T13:03:02.640Z,100825.15
2023-03-27T13:08:51.256Z,100851.09
2023-03-27T13:14:55.526Z,100853.34
2023-03-27T13:20:30.754Z,100851.13
2023-03-27T13:26:14.005Z,100856.00
2023-03-27T13:32:10.843Z,100853.59
2023-03-27T13:38:03.355Z,100850.00
2023-03-27T13:43:47.282Z,100855.63
2023-03-27T13:49:30.476Z,100861.39
2023-03-27T13:55:16.673Z,100862.80
2023-03-27T14:00:56.238Z,100857.78
2023-03-27T14:06:46.197Z,100846.77
2023-03-27T14:12:24.978Z,100847.15
2023-03-27T14:18:03.958Z,100847.50
2023-03-27T14:23:35.694Z,100847.07
2023-03-27T14:29:01.087Z,100849.53
2023-03-27T14:34:43.852Z,100848.70
2023-03-27T14:40:13.797Z,100848.05
2023-03-27T14:45:42.260Z,100850.52
2023-03-27T14:51:01.891Z,100846.48
2023-03-27T14:56:38.454Z,100847.29
2023-03-27T15:02:04.233Z,100847.83
2023-03-27T15:07:38.330Z,100849.96
2023-03-27T15:13:06.329Z,100852.86
2023-03-27T15:18:36.975Z,100854.67
2023-03-27T15:24:11.738Z,100852.78
2023-03-27T15:29:47.347Z,100850.84
2023-03-27T15:35:16.470Z,100855.01
2023-03-27T15:40:50.527Z,100859.35
2023-03-27T15:46:35.643Z,100858.40
2023-03-27T15:52:01.328Z,100859.04
2023-03-27T15:57:35.419Z,100866.55
2023-03-27T16:02:55.393Z,100874.52
2023-03-27T16:08:22.110Z,100879.48
2023-03-27T16:13:56.813Z,100893.72
2023-03-27T16:19:30.622Z,100903.71
2023-03-27T16:24:56.653Z,100913.01
2023-03-27T16:30:24.352Z,100912.78
2023-03-27T16:35:50.775Z,100900.39
2023-03-27T16:41:06.410Z,100899.50
2023-03-27T16:46:37.218Z,100912.42
2023-03-27T16:52:03.270Z,100924.12
2023-03-27T16:57:29.424Z,100929.52
2023-03-27T17:02:55.359Z,100938.68
2023-03-27T17:08:21.167Z,100940.26
2023-03-27T17:13:46.789Z,100952.60
2023-03-27T17:19:12.893Z,100963.70
2023-03-27T17:24:49.303Z,100973.63
2023-03-27T17:30:30.461Z,100984.63
2023-03-27T17:36:03.514Z,100991.48
2023-03-27T17:41:29.398Z,101001.48
2023-03-27T17:46:55.147Z,101001.75
2023-03-27T17:52:12.152Z,101001.17
2023-03-27T17:57:28.210Z,100999.77
2023-03-27T18:02:45.088Z,100996.35
2023-03-27T18:08:10.900Z,100997.90
2023-03-27T18:13:37.843Z,100992.23
2023-03-27T18:19:03.544Z,100999.69
2023-03-27T18:24:30.490Z,101005.69
2023-03-27T18:29:56.874Z,101008.96
2023-03-27T18:35:23.016Z,101015.10
2023-03-27T18:40:48.770Z,101014.45
2023-03-27T18:46:18.550Z,101009.58
2023-03-27T18:51:44.740Z,101014.77
2023-03-27T18:57:10.481Z,101011.23
2023-03-27T19:02:29.512Z,101001.02
2023-03-27T19:07:55.624Z,101001.83
2023-03-27T19:13:21.266Z,101000.74
2023-03-27T19:18:48.262Z,100997.23
2023-03-27T19:24:13.933Z,100992.98
2023-03-27T19:29:40.776Z,101002.25
2023-03-27T19:35:06.540Z,100997.60
2023-03-27T19:40:34.209Z,101000.44
2023-03-27T19:46:14.377Z,100995.92
2023-03-27T19:51:23.450Z,100995.02
2023-03-27T19:56:49.292Z,100995.41
2023-03-27T20:02:15.437Z,100995.52
2023-03-27T20:07:41.232Z,100993.37
2023-03-27T20:13:07.197Z,100991.48
2023-03-27T20:18:33.048Z,100991.27
2023-03-27T20:23:59.293Z,100990.20
2023-03-27T20:29:25.002Z,100988.25
2023-03-27T20:34:50.829Z,100979.17
2023-03-27T20:40:16.492Z,100975.17
2023-03-27T20:45:43.914Z,100975.75
2023-03-27T20:51:11.832Z,100979.53
2023-03-27T20:56:37.716Z,100968.40
2023-03-27T21:02:05.787Z,100968.54
2023-03-27T21:07:31.539Z,100959.90
2023-03-27T21:12:57.211Z,100954.98
2023-03-27T21:18:24.057Z,100958.81
2023-03-27T21:23:49.704Z,100957.97
2023-03-27T21:29:15.557Z,100957.94
2023-03-27T21:34:41.300Z,100964.16
2023-03-27T21:40:15.455Z,100962.52
2023-03-27T21:45:41.273Z,100960.70
2023-03-27T21:51:07.203Z,100959.55
2023-03-27T21:56:35.184Z,100967.27
2023-03-27T22:02:02.072Z,100969.49
2023-03-27T22:07:49.397Z,100979.67
2023-03-27T22:13:15.233Z,100985.04
2023-03-27T22:18:20.617Z,100986.89
2023-03-27T22:23:26.391Z,100991.89
2023-03-27T22:28:31.770Z,101004.88
2023-03-27T22:33:37.727Z,100998.18
2023-03-27T22:38:43.315Z,100997.80
2023-03-27T22:43:49.867Z,101005.63
2023-03-27T22:48:58.578Z,101012.67
2023-03-27T22:54:04.254Z,101013.23
2023-03-27T22:59:09.538Z,101012.77
2023-03-27T23:04:14.935Z,101009.64
2023-03-27T23:09:20.241Z,101008.63
2023-03-27T23:14:25.636Z,101019.19
2023-03-27T23:19:31.354Z,101020.05
2023-03-27T23:24:36.932Z,101026.66
2023-03-27T23:29:42.202Z,101028.98
2023-03-27T23:34:47.947Z,101037.02
2023-03-27T23:39:53.227Z,101069.05
2023-03-27T23:44:58.898Z,101101.73
2023-03-27T23:50:04.683Z,101097.88
2023-03-27T23:55:10.804Z,101104.94
